Terminal Aerodrome Forecast
Issued by NWS

Home | Current Version | Previous Version | Text Only | Print | Product List | Glossary On
Versions: 1 2 3 4 5 6 7 8 9 10 11 12 13 14
032
FTUS42 TJSJ 301807 AAA
TAFISX
TAF AMD
TISX 301807Z 3018/3118 06015G25KT P6SM VCSH SCT030 SCT040
      TEMPO 3018/3019 04015G25KT SHRA BKN035
     FM302330 07012G20KT P6SM VCTS BKN025CB BKN040
     FM311300 08015G25KT P6SM -TSRA BKN025CB BKN040=

USA.gov is the U.S. government's official web portal to all federal, state and local government web resources and services.